sensor_id;sensor_type;location;lat;lon;timestamp;pressure;altitude;pressure_sealevel;temperature;humidity
22311;BME280;11323;49.610;11.016;2023-01-30T00:02:20;98631.56;;;10.37;nan
22311;BME280;11323;49.610;11.016;2023-01-30T00:07:20;98614.53;;;10.33;nan
22311;BME280;11323;49.610;11.016;2023-01-30T00:12:21;98607.28;;;10.36;nan
22311;BME280;11323;49.610;11.016;2023-01-30T00:17:21;98604.97;;;10.33;nan
22311;BME280;11323;49.610;11.016;2023-01-30T00:22:22;98604.75;;;10.25;nan
22311;BME280;11323;49.610;11.016;2023-01-30T00:27:22;98610.97;;;10.24;nan
22311;BME280;11323;49.610;11.016;2023-01-30T00:32:22;98623.28;;;10.22;nan
22311;BME280;11323;49.610;11.016;2023-01-30T00:37:25;98631.81;;;10.24;nan
22311;BME280;11323;49.610;11.016;2023-01-30T00:42:26;98641.63;;;10.20;nan
22311;BME280;11323;49.610;11.016;2023-01-30T00:47:45;98638.47;;;10.17;nan
22311;BME280;11323;49.610;11.016;2023-01-30T00:52:47;98660.25;;;10.16;nan
22311;BME280;11323;49.610;11.016;2023-01-30T00:57:47;98644.63;;;10.16;nan
22311;BME280;11323;49.610;11.016;2023-01-30T01:02:48;98643.66;;;10.17;nan
22311;BME280;11323;49.610;11.016;2023-01-30T01:07:48;98643.91;;;10.14;nan
22311;BME280;11323;49.610;11.016;2023-01-30T01:12:49;98616.38;;;10.11;nan
22311;BME280;11323;49.610;11.016;2023-01-30T01:17:53;98604.56;;;10.07;nan
22311;BME280;11323;49.610;11.016;2023-01-30T01:22:55;98622.41;;;10.12;nan
22311;BME280;11323;49.610;11.016;2023-01-30T01:27:55;98599.94;;;10.11;nan
22311;BME280;11323;49.610;11.016;2023-01-30T01:32:56;98596.63;;;10.09;nan
22311;BME280;11323;49.610;11.016;2023-01-30T01:37:56;98574.84;;;10.10;nan
22311;BME280;11323;49.610;11.016;2023-01-30T01:42:57;98554.94;;;10.09;nan
22311;BME280;11323;49.610;11.016;2023-01-30T01:53:04;98556.16;;;10.04;nan
22311;BME280;11323;49.610;11.016;2023-01-30T01:58:13;98533.56;;;10.05;nan
22311;BME280;11323;49.610;11.016;2023-01-30T02:03:18;98531.34;;;10.00;nan
22311;BME280;11323;49.610;11.016;2023-01-30T02:08:23;98505.31;;;10.00;nan
22311;BME280;11323;49.610;11.016;2023-01-30T02:13:26;98497.75;;;9.97;nan
22311;BME280;11323;49.610;11.016;2023-01-30T02:18:30;98476.78;;;9.99;nan
22311;BME280;11323;49.610;11.016;2023-01-30T02:45:13;98467.03;;;9.91;nan
22311;BME280;11323;49.610;11.016;2023-01-30T02:50:20;98474.97;;;9.89;nan
22311;BME280;11323;49.610;11.016;2023-01-30T02:55:25;98448.94;;;9.89;nan
22311;BME280;11323;49.610;11.016;2023-01-30T03:11:05;98414.81;;;9.83;nan
22311;BME280;11323;49.610;11.016;2023-01-30T03:16:20;98410.16;;;9.86;nan
22311;BME280;11323;49.610;11.016;2023-01-30T03:21:21;98383.81;;;9.80;nan
22311;BME280;11323;49.610;11.016;2023-01-30T03:26:28;98387.13;;;9.82;nan
22311;BME280;11323;49.610;11.016;2023-01-30T03:31:30;98385.75;;;9.78;nan
22311;BME280;11323;49.610;11.016;2023-01-30T03:36:30;98375.34;;;9.78;nan
22311;BME280;11323;49.610;11.016;2023-01-30T03:41:31;98395.88;;;9.81;nan
22311;BME280;11323;49.610;11.016;2023-01-30T03:46:34;98368.19;;;9.80;nan
22311;BME280;11323;49.610;11.016;2023-01-30T03:51:35;98367.38;;;9.79;nan
22311;BME280;11323;49.610;11.016;2023-01-30T03:56:36;98353.44;;;9.80;nan
22311;BME280;11323;49.610;11.016;2023-01-30T04:01:37;98363.53;;;9.73;nan
22311;BME280;11323;49.610;11.016;2023-01-30T04:06:37;98371.09;;;9.77;nan
22311;BME280;11323;49.610;11.016;2023-01-30T04:11:38;98378.91;;;9.77;nan
22311;BME280;11323;49.610;11.016;2023-01-30T04:16:39;98376.56;;;9.73;nan
22311;BME280;11323;49.610;11.016;2023-01-30T04:22:13;98371.59;;;9.70;nan
22311;BME280;11323;49.610;11.016;2023-01-30T04:27:14;98373.94;;;9.73;nan
22311;BME280;11323;49.610;11.016;2023-01-30T04:32:30;98354.50;;;9.68;nan
22311;BME280;11323;49.610;11.016;2023-01-30T04:37:32;98358.59;;;9.70;nan
22311;BME280;11323;49.610;11.016;2023-01-30T04:42:33;98356.69;;;9.72;nan
22311;BME280;11323;49.610;11.016;2023-01-30T04:47:53;98363.81;;;9.70;nan
22311;BME280;11323;49.610;11.016;2023-01-30T04:52:54;98330.13;;;9.69;nan
22311;BME280;11323;49.610;11.016;2023-01-30T04:57:54;98327.66;;;9.67;nan
22311;BME280;11323;49.610;11.016;2023-01-30T05:02:55;98327.66;;;9.67;nan
22311;BME280;11323;49.610;11.016;2023-01-30T05:07:55;98326.13;;;9.65;nan
22311;BME280;11323;49.610;11.016;2023-01-30T05:13:00;98324.34;;;9.65;nan
22311;BME280;11323;49.610;11.016;2023-01-30T05:18:01;98317.75;;;9.61;nan
22311;BME280;11323;49.610;11.016;2023-01-30T05:23:01;98306.41;;;9.62;nan
22311;BME280;11323;49.610;11.016;2023-01-30T05:28:02;98309.00;;;9.62;nan
22311;BME280;11323;49.610;11.016;2023-01-30T05:33:02;98293.94;;;9.56;nan
22311;BME280;11323;49.610;11.016;2023-01-30T05:38:03;98307.34;;;9.61;nan
22311;BME280;11323;49.610;11.016;2023-01-30T05:43:03;98305.84;;;9.58;nan
22311;BME280;11323;49.610;11.016;2023-01-30T05:48:03;98301.34;;;9.61;nan
22311;BME280;11323;49.610;11.016;2023-01-30T05:53:04;98283.53;;;9.56;nan
22311;BME280;11323;49.610;11.016;2023-01-30T05:58:04;98281.88;;;9.55;nan
22311;BME280;11323;49.610;11.016;2023-01-30T06:03:05;98287.09;;;9.55;nan
22311;BME280;11323;49.610;11.016;2023-01-30T06:08:05;98287.09;;;9.55;nan
22311;BME280;11323;49.610;11.016;2023-01-30T06:13:07;98290.91;;;9.51;nan
22311;BME280;11323;49.610;11.016;2023-01-30T06:18:10;98291.19;;;9.57;nan
22311;BME280;11323;49.610;11.016;2023-01-30T06:23:10;98285.56;;;9.52;nan
22311;BME280;11323;49.610;11.016;2023-01-30T06:28:11;98292.56;;;9.52;nan
22311;BME280;11323;49.610;11.016;2023-01-30T06:33:11;98299.41;;;9.53;nan
22311;BME280;11323;49.610;11.016;2023-01-30T06:38:12;98298.31;;;9.55;nan
22311;BME280;11323;49.610;11.016;2023-01-30T06:43:14;98304.34;;;9.56;nan
22311;BME280;11323;49.610;11.016;2023-01-30T06:48:14;98293.34;;;9.52;nan
22311;BME280;11323;49.610;11.016;2023-01-30T06:53:15;98298.00;;;9.49;nan
22311;BME280;11323;49.610;11.016;2023-01-30T06:58:15;98289.25;;;9.50;nan
22311;BME280;11323;49.610;11.016;2023-01-30T07:03:17;98297.06;;;9.50;nan
22311;BME280;11323;49.610;11.016;2023-01-30T07:08:17;98290.91;;;9.51;nan
22311;BME280;11323;49.610;11.016;2023-01-30T07:13:18;98284.06;;;9.50;nan
22311;BME280;11323;49.610;11.016;2023-01-30T07:18:18;98284.19;;;9.48;nan
22311;BME280;11323;49.610;11.016;2023-01-30T07:23:19;98264.19;;;9.49;nan
22311;BME280;11323;49.610;11.016;2023-01-30T07:28:19;98261.59;;;9.49;nan
22311;BME280;11323;49.610;11.016;2023-01-30T07:33:19;98245.97;;;9.49;nan
22311;BME280;11323;49.610;11.016;2023-01-30T07:38:20;98243.25;;;9.50;nan
22311;BME280;11323;49.610;11.016;2023-01-30T07:43:20;98248.47;;;9.60;nan
22311;BME280;11323;49.610;11.016;2023-01-30T07:48:21;98230.69;;;9.65;nan
22311;BME280;11323;49.610;11.016;2023-01-30T07:53:21;98222.72;;;9.67;nan
22311;BME280;11323;49.610;11.016;2023-01-30T07:58:21;98211.22;;;9.89;nan
22311;BME280;11323;49.610;11.016;2023-01-30T08:03:22;98216.97;;;9.83;nan
22311;BME280;11323;49.610;11.016;2023-01-30T08:08:22;98186.28;;;9.77;nan
22311;BME280;11323;49.610;11.016;2023-01-30T08:13:22;98201.91;;;9.77;nan
22311;BME280;11323;49.610;11.016;2023-01-30T08:18:23;98205.31;;;9.87;nan
22311;BME280;11323;49.610;11.016;2023-01-30T08:23:23;98200.94;;;9.87;nan
22311;BME280;11323;49.610;11.016;2023-01-30T08:28:24;98193.13;;;9.87;nan
22311;BME280;11323;49.610;11.016;2023-01-30T08:33:25;98192.69;;;9.92;nan
22311;BME280;11323;49.610;11.016;2023-01-30T08:38:25;98181.75;;;9.98;nan
22311;BME280;11323;49.610;11.016;2023-01-30T08:43:26;98201.31;;;10.22;nan
22311;BME280;11323;49.610;11.016;2023-01-30T08:48:26;98177.16;;;10.40;nan
22311;BME280;11323;49.610;11.016;2023-01-30T08:53:27;98178.72;;;10.60;nan
22311;BME280;11323;49.610;11.016;2023-01-30T08:58:27;98181.44;;;10.69;nan
22311;BME280;11323;49.610;11.016;2023-01-30T09:03:28;98184.06;;;10.69;nan
22311;BME280;11323;49.610;11.016;2023-01-30T09:08:28;98178.53;;;10.72;nan
22311;BME280;11323;49.610;11.016;2023-01-30T09:13:29;98172.69;;;10.88;nan
22311;BME280;11323;49.610;11.016;2023-01-30T09:18:30;98160.38;;;11.08;nan
22311;BME280;11323;49.610;11.016;2023-01-30T09:23:30;98161.06;;;11.10;nan
22311;BME280;11323;49.610;11.016;2023-01-30T09:28:31;98162.00;;;11.09;nan
22311;BME280;11323;49.610;11.016;2023-01-30T09:33:32;98162.69;;;11.11;nan
22311;BME280;11323;49.610;11.016;2023-01-30T09:38:32;98157.75;;;11.08;nan
22311;BME280;11323;49.610;11.016;2023-01-30T09:43:43;98168.47;;;11.05;nan
22311;BME280;11323;49.610;11.016;2023-01-30T09:54:32;98132.88;;;11.13;nan
22311;BME280;11323;49.610;11.016;2023-01-30T09:59:44;98147.34;;;11.08;nan
22311;BME280;11323;49.610;11.016;2023-01-30T10:04:47;98151.59;;;11.09;nan
22311;BME280;11323;49.610;11.016;2023-01-30T10:09:54;98137.88;;;11.07;nan
22311;BME280;11323;49.610;11.016;2023-01-30T10:25:32;98144.84;;;10.88;nan
22311;BME280;11323;49.610;11.016;2023-01-30T10:30:35;98130.59;;;10.82;nan
22311;BME280;11323;49.610;11.016;2023-01-30T10:35:37;98143.69;;;11.01;nan
22311;BME280;11323;49.610;11.016;2023-01-30T10:40:42;98141.16;;;11.09;nan
22311;BME280;11323;49.610;11.016;2023-01-30T10:46:04;98144.34;;;11.21;nan
22311;BME280;11323;49.610;11.016;2023-01-30T10:51:17;98141.31;;;11.25;nan
22311;BME280;11323;49.610;11.016;2023-01-30T10:56:33;98128.94;;;11.27;nan
22311;BME280;11323;49.610;11.016;2023-01-30T11:01:43;98128.28;;;11.25;nan
22311;BME280;11323;49.610;11.016;2023-01-30T11:06:44;98124.31;;;11.21;nan
22311;BME280;11323;49.610;11.016;2023-01-30T11:11:53;98113.22;;;11.19;nan
22311;BME280;11323;49.610;11.016;2023-01-30T11:16:55;98110.66;;;11.27;nan
22311;BME280;11323;49.610;11.016;2023-01-30T11:22:00;98113.22;;;11.37;nan
22311;BME280;11323;49.610;11.016;2023-01-30T11:27:26;98101.06;;;11.46;nan
22311;BME280;11323;49.610;11.016;2023-01-30T11:32:28;98099.84;;;11.58;nan
22311;BME280;11323;49.610;11.016;2023-01-30T11:37:47;98101.59;;;11.76;nan
22311;BME280;11323;49.610;11.016;2023-01-30T11:42:57;98098.94;;;11.94;nan
22311;BME280;11323;49.610;11.016;2023-01-30T11:48:00;98100.59;;;12.22;nan
22311;BME280;11323;49.610;11.016;2023-01-30T11:53:04;98115.47;;;12.21;nan
22311;BME280;11323;49.610;11.016;2023-01-30T11:58:12;98102.84;;;12.16;nan
22311;BME280;11323;49.610;11.016;2023-01-30T12:03:15;98105.81;;;11.95;nan
22311;BME280;11323;49.610;11.016;2023-01-30T12:18:34;98080.00;;;11.66;nan
22311;BME280;11323;49.610;11.016;2023-01-30T12:23:42;98093.59;;;11.78;nan
22311;BME280;11323;49.610;11.016;2023-01-30T12:33:54;98083.34;;;12.02;nan
22311;BME280;11323;49.610;11.016;2023-01-30T12:38:58;98068.88;;;12.16;nan
22311;BME280;11323;49.610;11.016;2023-01-30T13:00:00;98074.72;;;12.45;nan
22311;BME280;11323;49.610;11.016;2023-01-30T13:05:16;98070.16;;;12.47;nan
22311;BME280;11323;49.610;11.016;2023-01-30T13:10:29;98075.06;;;12.42;nan
22311;BME280;11323;49.610;11.016;2023-01-30T13:21:07;98064.41;;;12.35;nan
22311;BME280;11323;49.610;11.016;2023-01-30T13:26:16;98057.53;;;12.34;nan
22311;BME280;11323;49.610;11.016;2023-01-30T13:31:23;98081.34;;;12.31;nan
22311;BME280;11323;49.610;11.016;2023-01-30T13:36:51;98089.50;;;12.28;nan
22311;BME280;11323;49.610;11.016;2023-01-30T13:41:55;98072.22;;;12.27;nan
22311;BME280;11323;49.610;11.016;2023-01-30T13:58:17;98063.84;;;12.74;nan
22311;BME280;11323;49.610;11.016;2023-01-30T14:03:25;98070.09;;;12.81;nan
22311;BME280;11323;49.610;11.016;2023-01-30T14:08:32;98066.34;;;12.84;nan
22311;BME280;11323;49.610;11.016;2023-01-30T14:13:34;98077.47;;;12.86;nan
22311;BME280;11323;49.610;11.016;2023-01-30T14:18:35;98064.88;;;12.81;nan
22311;BME280;11323;49.610;11.016;2023-01-30T14:23:38;98091.66;;;12.75;nan
22311;BME280;11323;49.610;11.016;2023-01-30T14:28:44;98099.34;;;12.77;nan
22311;BME280;11323;49.610;11.016;2023-01-30T14:33:49;98109.28;;;12.73;nan
22311;BME280;11323;49.610;11.016;2023-01-30T14:44:54;98112.72;;;12.65;nan
22311;BME280;11323;49.610;11.016;2023-01-30T14:49:56;98121.19;;;12.67;nan
22311;BME280;11323;49.610;11.016;2023-01-30T14:54:56;98128.94;;;12.86;nan
22311;BME280;11323;49.610;11.016;2023-01-30T15:00:03;98110.16;;;12.90;nan
22311;BME280;11323;49.610;11.016;2023-01-30T15:05:06;98127.66;;;12.98;nan
22311;BME280;11323;49.610;11.016;2023-01-30T15:15:44;98143.03;;;12.93;nan
22311;BME280;11323;49.610;11.016;2023-01-30T15:26:55;98193.03;;;12.90;nan
22311;BME280;11323;49.610;11.016;2023-01-30T15:31:30;98184.34;;;12.81;nan
22311;BME280;11323;49.610;11.016;2023-01-30T15:36:33;98202.81;;;12.79;nan
22311;BME280;11323;49.610;11.016;2023-01-30T15:41:37;98214.84;;;12.72;nan
22311;BME280;11323;49.610;11.016;2023-01-30T15:52:15;98214.59;;;12.83;nan
22311;BME280;11323;49.610;11.016;2023-01-30T15:57:22;98216.59;;;12.90;nan
22311;BME280;11323;49.610;11.016;2023-01-30T16:02:29;98222.22;;;13.03;nan
22311;BME280;11323;49.610;11.016;2023-01-30T16:07:30;98228.28;;;13.12;nan
22311;BME280;11323;49.610;11.016;2023-01-30T16:12:31;98236.59;;;13.07;nan
22311;BME280;11323;49.610;11.016;2023-01-30T16:17:31;98251.69;;;13.13;nan
22311;BME280;11323;49.610;11.016;2023-01-30T16:22:33;98256.41;;;13.10;nan
22311;BME280;11323;49.610;11.016;2023-01-30T16:27:34;98241.91;;;12.89;nan
22311;BME280;11323;49.610;11.016;2023-01-30T16:32:36;98264.25;;;12.75;nan
22311;BME280;11323;49.610;11.016;2023-01-30T16:37:38;98260.88;;;12.57;nan
22311;BME280;11323;49.610;11.016;2023-01-30T16:42:38;98276.34;;;12.50;nan
22311;BME280;11323;49.610;11.016;2023-01-30T16:47:39;98283.19;;;12.43;nan
22311;BME280;11323;49.610;11.016;2023-01-30T16:52:45;98295.91;;;12.46;nan
22311;BME280;11323;49.610;11.016;2023-01-30T16:57:52;98284.03;;;12.51;nan
22311;BME280;11323;49.610;11.016;2023-01-30T17:02:56;98302.28;;;12.70;nan
22311;BME280;11323;49.610;11.016;2023-01-30T17:07:57;98320.09;;;12.66;nan
22311;BME280;11323;49.610;11.016;2023-01-30T17:12:59;98321.97;;;12.56;nan
22311;BME280;11323;49.610;11.016;2023-01-30T17:18:00;98321.75;;;12.49;nan
22311;BME280;11323;49.610;11.016;2023-01-30T17:23:04;98325.13;;;12.41;nan
22311;BME280;11323;49.610;11.016;2023-01-30T17:28:07;98329.84;;;12.38;nan
22311;BME280;11323;49.610;11.016;2023-01-30T17:33:11;98327.41;;;12.36;nan
22311;BME280;11323;49.610;11.016;2023-01-30T17:38:11;98327.97;;;12.30;nan
22311;BME280;11323;49.610;11.016;2023-01-30T17:43:12;98338.75;;;12.27;nan
22311;BME280;11323;49.610;11.016;2023-01-30T17:48:12;98337.41;;;12.23;nan
22311;BME280;11323;49.610;11.016;2023-01-30T17:53:13;98354.34;;;12.18;nan
22311;BME280;11323;49.610;11.016;2023-01-30T17:58:15;98365.25;;;12.14;nan
22311;BME280;11323;49.610;11.016;2023-01-30T18:03:16;98387.78;;;12.15;nan
22311;BME280;11323;49.610;11.016;2023-01-30T18:08:17;98386.00;;;12.15;nan
22311;BME280;11323;49.610;11.016;2023-01-30T18:13:17;98414.44;;;12.18;nan
22311;BME280;11323;49.610;11.016;2023-01-30T18:18:17;98414.44;;;12.18;nan
22311;BME280;11323;49.610;11.016;2023-01-30T18:23:18;98422.72;;;12.14;nan
22311;BME280;11323;49.610;11.016;2023-01-30T18:28:18;98431.28;;;12.06;nan
22311;BME280;11323;49.610;11.016;2023-01-30T18:33:19;98428.31;;;11.91;nan
22311;BME280;11323;49.610;11.016;2023-01-30T18:38:19;98440.09;;;12.05;nan
22311;BME280;11323;49.610;11.016;2023-01-30T18:43:20;98433.13;;;12.24;nan
22311;BME280;11323;49.610;11.016;2023-01-30T18:48:20;98464.41;;;12.51;nan
22311;BME280;11323;49.610;11.016;2023-01-30T18:53:21;98465.84;;;12.46;nan
22311;BME280;11323;49.610;11.016;2023-01-30T18:58:21;98470.19;;;12.37;nan
22311;BME280;11323;49.610;11.016;2023-01-30T19:03:22;98465.53;;;12.31;nan
22311;BME280;11323;49.610;11.016;2023-01-30T19:08:22;98473.38;;;12.31;nan
22311;BME280;11323;49.610;11.016;2023-01-30T19:13:24;98482.59;;;12.25;nan
22311;BME280;11323;49.610;11.016;2023-01-30T19:18:35;98487.59;;;12.18;nan
22311;BME280;11323;49.610;11.016;2023-01-30T19:23:36;98489.84;;;12.13;nan
22311;BME280;11323;49.610;11.016;2023-01-30T19:28:36;98497.44;;;12.07;nan
22311;BME280;11323;49.610;11.016;2023-01-30T19:33:37;98494.56;;;12.00;nan
22311;BME280;11323;49.610;11.016;2023-01-30T19:38:38;98510.66;;;11.95;nan
22311;BME280;11323;49.610;11.016;2023-01-30T19:43:39;98494.56;;;11.90;nan
22311;BME280;11323;49.610;11.016;2023-01-30T19:48:41;98497.91;;;11.82;nan
22311;BME280;11323;49.610;11.016;2023-01-30T19:53:43;98508.16;;;11.94;nan
22311;BME280;11323;49.610;11.016;2023-01-30T19:58:44;98517.13;;;12.01;nan
22311;BME280;11323;49.610;11.016;2023-01-30T20:03:44;98522.72;;;12.06;nan
22311;BME280;11323;49.610;11.016;2023-01-30T20:08:47;98521.75;;;12.07;nan
22311;BME280;11323;49.610;11.016;2023-01-30T20:13:49;98523.69;;;12.05;nan
22311;BME280;11323;49.610;11.016;2023-01-30T20:18:55;98525.88;;;12.10;nan
22311;BME280;11323;49.610;11.016;2023-01-30T20:23:57;98534.38;;;12.12;nan
22311;BME280;11323;49.610;11.016;2023-01-30T20:28:57;98542.78;;;12.15;nan
22311;BME280;11323;49.610;11.016;2023-01-30T20:34:00;98556.81;;;12.14;nan
22311;BME280;11323;49.610;11.016;2023-01-30T20:39:01;98554.47;;;12.11;nan
22311;BME280;11323;49.610;11.016;2023-01-30T20:44:04;98560.50;;;12.12;nan
22311;BME280;11323;49.610;11.016;2023-01-30T20:49:09;98568.22;;;12.13;nan
22311;BME280;11323;49.610;11.016;2023-01-30T20:54:12;98570.69;;;12.05;nan
22311;BME280;11323;49.610;11.016;2023-01-30T20:59:15;98577.16;;;12.11;nan
22311;BME280;11323;49.610;11.016;2023-01-30T21:04:17;98549.94;;;11.94;nan
22311;BME280;11323;49.610;11.016;2023-01-30T21:09:20;98574.84;;;12.08;nan
22311;BME280;11323;49.610;11.016;2023-01-30T21:14:21;98581.16;;;12.05;nan
22311;BME280;11323;49.610;11.016;2023-01-30T21:19:21;98577.56;;;12.06;nan
22311;BME280;11323;49.610;11.016;2023-01-30T21:24:25;98585.56;;;12.04;nan
22311;BME280;11323;49.610;11.016;2023-01-30T21:29:27;98597.03;;;11.74;nan
22311;BME280;11323;49.610;11.016;2023-01-30T21:34:27;98583.03;;;11.55;nan
22311;BME280;11323;49.610;11.016;2023-01-30T21:39:28;98598.84;;;11.44;nan
22311;BME280;11323;49.610;11.016;2023-01-30T21:44:47;98590.88;;;11.26;nan
22311;BME280;11323;49.610;11.016;2023-01-30T21:49:52;98614.22;;;11.27;nan
22311;BME280;11323;49.610;11.016;2023-01-30T21:54:52;98632.22;;;11.21;nan
22311;BME280;11323;49.610;11.016;2023-01-30T21:59:53;98634.41;;;11.16;nan
22311;BME280;11323;49.610;11.016;2023-01-30T22:04:53;98636.47;;;11.12;nan
22311;BME280;11323;49.610;11.016;2023-01-30T22:09:53;98642.22;;;11.06;nan
22311;BME280;11323;49.610;11.016;2023-01-30T22:14:54;98642.78;;;11.00;nan
22311;BME280;11323;49.610;11.016;2023-01-30T22:19:55;98650.84;;;10.96;nan
22311;BME280;11323;49.610;11.016;2023-01-30T22:24:55;98650.69;;;10.88;nan
22311;BME280;11323;49.610;11.016;2023-01-30T22:29:55;98662.78;;;10.89;nan
22311;BME280;11323;49.610;11.016;2023-01-30T22:34:56;98662.34;;;10.84;nan
22311;BME280;11323;49.610;11.016;2023-01-30T22:39:56;98662.88;;;10.78;nan
22311;BME280;11323;49.610;11.016;2023-01-30T22:44:56;98668.09;;;10.78;nan
22311;BME280;11323;49.610;11.016;2023-01-30T22:49:57;98697.84;;;10.75;nan
22311;BME280;11323;49.610;11.016;2023-01-30T22:54:57;98684.41;;;10.70;nan
22311;BME280;11323;49.610;11.016;2023-01-30T22:59:58;98697.84;;;10.65;nan
22311;BME280;11323;49.610;11.016;2023-01-30T23:04:58;98694.66;;;10.62;nan
22311;BME280;11323;49.610;11.016;2023-01-30T23:09:59;98692.16;;;10.50;nan
22311;BME280;11323;49.610;11.016;2023-01-30T23:14:59;98715.91;;;10.57;nan
22311;BME280;11323;49.610;11.016;2023-01-30T23:19:59;98716.88;;;10.56;nan
22311;BME280;11323;49.610;11.016;2023-01-30T23:25:00;98707.50;;;10.54;nan
22311;BME280;11323;49.610;11.016;2023-01-30T23:30:00;98702.44;;;10.52;nan
22311;BME280;11323;49.610;11.016;2023-01-30T23:35:00;98700.06;;;10.49;nan
22311;BME280;11323;49.610;11.016;2023-01-30T23:40:01;98707.91;;;10.49;nan
22311;BME280;11323;49.610;11.016;2023-01-30T23:45:01;98699.09;;;10.40;nan
22311;BME280;11323;49.610;11.016;2023-01-30T23:50:02;98715.28;;;10.44;nan
22311;BME280;11323;49.610;11.016;2023-01-30T23:55:02;98706.06;;;10.40;nan
